sensor_id;sensor_type;location;lat;lon;timestamp;pressure;altitude;pressure_sealevel;temperature;humidity
20825;BME280;10573;50.936;6.978;2023-05-21T00:01:08;101271.34;;;17.05;61.07
20825;BME280;10573;50.936;6.978;2023-05-21T00:03:34;101264.31;;;16.78;62.23
20825;BME280;10573;50.936;6.978;2023-05-21T00:06:00;101257.78;;;16.87;61.72
20825;BME280;10573;50.936;6.978;2023-05-21T00:08:27;101251.75;;;16.84;61.69
20825;BME280;10573;50.936;6.978;2023-05-21T00:10:53;101252.09;;;16.97;61.70
20825;BME280;10573;50.936;6.978;2023-05-21T00:13:18;101256.25;;;16.93;61.60
20825;BME280;10573;50.936;6.978;2023-05-21T00:15:44;101244.69;;;16.81;61.81
20825;BME280;10573;50.936;6.978;2023-05-21T00:18:09;101253.13;;;16.88;61.77
20825;BME280;10573;50.936;6.978;2023-05-21T00:20:35;101247.81;;;16.94;61.72
20825;BME280;10573;50.936;6.978;2023-05-21T00:23:01;101241.94;;;16.81;62.06
20825;BME280;10573;50.936;6.978;2023-05-21T00:25:29;101239.72;;;17.01;61.91
20825;BME280;10573;50.936;6.978;2023-05-21T00:27:55;101238.88;;;16.76;62.29
20825;BME280;10573;50.936;6.978;2023-05-21T00:30:21;101225.78;;;16.78;62.17
20825;BME280;10573;50.936;6.978;2023-05-21T00:32:46;101234.22;;;16.76;62.11
20825;BME280;10573;50.936;6.978;2023-05-21T00:35:12;101230.44;;;16.77;62.31
20825;BME280;10573;50.936;6.978;2023-05-21T00:37:37;101223.91;;;16.70;62.62
20825;BME280;10573;50.936;6.978;2023-05-21T00:40:04;101224.25;;;16.67;62.64
20825;BME280;10573;50.936;6.978;2023-05-21T00:42:31;101225.66;;;16.55;63.02
20825;BME280;10573;50.936;6.978;2023-05-21T00:44:58;101222.38;;;16.59;62.80
20825;BME280;10573;50.936;6.978;2023-05-21T00:47:23;101214.31;;;16.58;62.83
20825;BME280;10573;50.936;6.978;2023-05-21T00:49:51;101221.88;;;16.23;64.03
20825;BME280;10573;50.936;6.978;2023-05-21T00:52:17;101216.38;;;16.39;63.62
20825;BME280;10573;50.936;6.978;2023-05-21T00:54:50;101216.03;;;16.59;62.98
20825;BME280;10573;50.936;6.978;2023-05-21T00:57:17;101217.06;;;16.41;63.32
20825;BME280;10573;50.936;6.978;2023-05-21T00:59:46;101213.47;;;16.49;63.04
20825;BME280;10573;50.936;6.978;2023-05-21T01:02:12;101209.84;;;16.49;63.09
20825;BME280;10573;50.936;6.978;2023-05-21T01:04:38;101211.03;;;16.71;62.62
20825;BME280;10573;50.936;6.978;2023-05-21T01:07:04;101210.16;;;16.62;62.47
20825;BME280;10573;50.936;6.978;2023-05-21T01:09:30;101212.22;;;16.76;62.35
20825;BME280;10573;50.936;6.978;2023-05-21T01:11:56;101211.16;;;16.86;62.26
20825;BME280;10573;50.936;6.978;2023-05-21T01:14:24;101208.41;;;16.86;62.18
20825;BME280;10573;50.936;6.978;2023-05-21T01:16:50;101215.16;;;16.75;62.46
20825;BME280;10573;50.936;6.978;2023-05-21T01:19:21;101211.22;;;16.69;62.63
20825;BME280;10573;50.936;6.978;2023-05-21T01:21:52;101212.03;;;16.78;62.48
20825;BME280;10573;50.936;6.978;2023-05-21T01:24:20;101211.72;;;16.89;62.17
20825;BME280;10573;50.936;6.978;2023-05-21T01:26:46;101210.81;;;16.89;62.10
20825;BME280;10573;50.936;6.978;2023-05-21T01:29:12;101202.63;;;16.64;62.46
20825;BME280;10573;50.936;6.978;2023-05-21T01:31:44;101206.38;;;16.71;62.88
20825;BME280;10573;50.936;6.978;2023-05-21T01:34:13;101205.69;;;16.77;62.67
20825;BME280;10573;50.936;6.978;2023-05-21T01:36:51;101199.72;;;16.49;63.38
20825;BME280;10573;50.936;6.978;2023-05-21T01:39:25;101198.16;;;16.47;63.35
20825;BME280;10573;50.936;6.978;2023-05-21T01:41:53;101201.56;;;16.57;63.44
20825;BME280;10573;50.936;6.978;2023-05-21T01:44:21;101193.34;;;16.49;63.64
20825;BME280;10573;50.936;6.978;2023-05-21T01:46:49;101200.75;;;16.40;63.68
20825;BME280;10573;50.936;6.978;2023-05-21T01:49:16;101198.50;;;16.52;63.45
20825;BME280;10573;50.936;6.978;2023-05-21T01:51:42;101192.66;;;16.47;63.60
20825;BME280;10573;50.936;6.978;2023-05-21T01:54:08;101194.34;;;16.48;63.74
20825;BME280;10573;50.936;6.978;2023-05-21T01:56:33;101205.03;;;16.59;63.32
20825;BME280;10573;50.936;6.978;2023-05-21T01:59:01;101201.41;;;16.42;63.61
20825;BME280;10573;50.936;6.978;2023-05-21T02:01:26;101190.75;;;16.47;63.59
20825;BME280;10573;50.936;6.978;2023-05-21T02:03:54;101195.56;;;16.37;63.57
20825;BME280;10573;50.936;6.978;2023-05-21T02:06:21;101184.09;;;16.33;63.73
20825;BME280;10573;50.936;6.978;2023-05-21T02:08:46;101199.88;;;16.56;63.24
20825;BME280;10573;50.936;6.978;2023-05-21T02:11:12;101191.63;;;16.39;63.79
20825;BME280;10573;50.936;6.978;2023-05-21T02:13:38;101193.69;;;16.46;63.77
20825;BME280;10573;50.936;6.978;2023-05-21T02:16:07;101189.75;;;16.32;64.04
20825;BME280;10573;50.936;6.978;2023-05-21T02:18:36;101192.31;;;16.41;63.65
20825;BME280;10573;50.936;6.978;2023-05-21T02:21:02;101191.13;;;16.27;64.14
20825;BME280;10573;50.936;6.978;2023-05-21T02:23:27;101192.31;;;16.00;65.07
20825;BME280;10573;50.936;6.978;2023-05-21T02:25:53;101189.91;;;16.05;64.93
20825;BME280;10573;50.936;6.978;2023-05-21T02:28:18;101189.25;;;16.20;64.48
20825;BME280;10573;50.936;6.978;2023-05-21T02:30:45;101191.94;;;15.95;65.00
20825;BME280;10573;50.936;6.978;2023-05-21T02:33:10;101192.66;;;15.97;65.04
20825;BME280;10573;50.936;6.978;2023-05-21T02:35:38;101186.13;;;15.98;64.95
20825;BME280;10573;50.936;6.978;2023-05-21T02:38:04;101183.72;;;15.95;65.08
20825;BME280;10573;50.936;6.978;2023-05-21T02:40:29;101186.13;;;15.98;65.25
20825;BME280;10573;50.936;6.978;2023-05-21T02:42:54;101186.03;;;15.65;65.92
20825;BME280;10573;50.936;6.978;2023-05-21T02:45:20;101178.22;;;15.87;65.55
20825;BME280;10573;50.936;6.978;2023-05-21T02:47:46;101180.97;;;15.87;65.57
20825;BME280;10573;50.936;6.978;2023-05-21T02:50:12;101177.19;;;15.96;65.08
20825;BME280;10573;50.936;6.978;2023-05-21T02:52:38;101181.31;;;15.92;64.97
20825;BME280;10573;50.936;6.978;2023-05-21T02:55:03;101179.34;;;15.59;66.55
20825;BME280;10573;50.936;6.978;2023-05-21T02:57:29;101177.00;;;15.81;65.93
20825;BME280;10573;50.936;6.978;2023-05-21T02:59:54;101177.72;;;16.00;65.17
20825;BME280;10573;50.936;6.978;2023-05-21T03:02:20;101176.41;;;15.61;66.50
20825;BME280;10573;50.936;6.978;2023-05-21T03:04:45;101174.69;;;15.68;66.29
20825;BME280;10573;50.936;6.978;2023-05-21T03:07:12;101168.00;;;15.54;66.93
20825;BME280;10573;50.936;6.978;2023-05-21T03:09:39;101171.66;;;15.71;66.73
20825;BME280;10573;50.936;6.978;2023-05-21T03:12:06;101162.72;;;15.77;66.46
20825;BME280;10573;50.936;6.978;2023-05-21T03:14:32;101160.13;;;15.76;66.40
20825;BME280;10573;50.936;6.978;2023-05-21T03:16:57;101165.34;;;15.96;65.73
20825;BME280;10573;50.936;6.978;2023-05-21T03:19:23;101152.59;;;15.70;66.52
20825;BME280;10573;50.936;6.978;2023-05-21T03:21:49;101159.16;;;15.85;66.14
20825;BME280;10573;50.936;6.978;2023-05-21T03:24:14;101158.91;;;15.62;66.59
20825;BME280;10573;50.936;6.978;2023-05-21T03:26:40;101157.53;;;15.58;66.76
20825;BME280;10573;50.936;6.978;2023-05-21T03:29:05;101164.44;;;15.78;66.37
20825;BME280;10573;50.936;6.978;2023-05-21T03:31:31;101165.00;;;16.07;65.63
20825;BME280;10573;50.936;6.978;2023-05-21T03:33:56;101165.78;;;15.66;66.70
20825;BME280;10573;50.936;6.978;2023-05-21T03:36:22;101164.06;;;15.73;66.59
20825;BME280;10573;50.936;6.978;2023-05-21T03:38:47;101161.22;;;15.83;66.29
20825;BME280;10573;50.936;6.978;2023-05-21T03:41:13;101165.44;;;15.77;66.48
20825;BME280;10573;50.936;6.978;2023-05-21T03:43:38;101165.09;;;15.72;66.74
20825;BME280;10573;50.936;6.978;2023-05-21T03:46:03;101169.34;;;15.50;67.18
20825;BME280;10573;50.936;6.978;2023-05-21T03:48:29;101157.19;;;15.53;66.93
20825;BME280;10573;50.936;6.978;2023-05-21T03:50:54;101162.69;;;15.61;66.99
20825;BME280;10573;50.936;6.978;2023-05-21T03:53:20;101158.22;;;15.68;66.50
20825;BME280;10573;50.936;6.978;2023-05-21T03:55:45;101167.34;;;15.60;67.12
20825;BME280;10573;50.936;6.978;2023-05-21T03:58:11;101162.84;;;15.51;67.23
20825;BME280;10573;50.936;6.978;2023-05-21T04:00:36;101154.78;;;15.58;66.98
20825;BME280;10573;50.936;6.978;2023-05-21T04:03:03;101154.09;;;15.72;66.41
20825;BME280;10573;50.936;6.978;2023-05-21T04:05:28;101162.06;;;15.92;66.14
20825;BME280;10573;50.936;6.978;2023-05-21T04:07:53;101161.06;;;15.93;65.93
20825;BME280;10573;50.936;6.978;2023-05-21T04:10:19;101157.78;;;15.89;66.12
20825;BME280;10573;50.936;6.978;2023-05-21T04:12:44;101150.72;;;15.95;65.90
20825;BME280;10573;50.936;6.978;2023-05-21T04:15:10;101155.03;;;15.98;65.70
20825;BME280;10573;50.936;6.978;2023-05-21T04:17:36;101157.59;;;15.99;65.66
20825;BME280;10573;50.936;6.978;2023-05-21T04:20:02;101152.28;;;15.98;65.69
20825;BME280;10573;50.936;6.978;2023-05-21T04:22:28;101159.50;;;15.82;65.95
20825;BME280;10573;50.936;6.978;2023-05-21T04:24:53;101159.59;;;15.72;66.30
20825;BME280;10573;50.936;6.978;2023-05-21T04:27:20;101158.09;;;15.78;66.27
20825;BME280;10573;50.936;6.978;2023-05-21T04:29:48;101160.66;;;15.71;66.40
20825;BME280;10573;50.936;6.978;2023-05-21T04:32:14;101157.00;;;15.46;67.23
20825;BME280;10573;50.936;6.978;2023-05-21T04:34:42;101167.84;;;15.64;66.75
20825;BME280;10573;50.936;6.978;2023-05-21T04:37:07;101157.59;;;15.91;66.26
20825;BME280;10573;50.936;6.978;2023-05-21T04:39:33;101163.06;;;15.74;66.42
20825;BME280;10573;50.936;6.978;2023-05-21T04:41:59;101167.91;;;15.81;66.32
20825;BME280;10573;50.936;6.978;2023-05-21T04:44:26;101169.78;;;15.88;66.17
20825;BME280;10573;50.936;6.978;2023-05-21T04:46:51;101173.41;;;15.81;66.22
20825;BME280;10573;50.936;6.978;2023-05-21T04:49:18;101171.34;;;15.99;65.80
20825;BME280;10573;50.936;6.978;2023-05-21T04:51:45;101173.25;;;15.99;65.60
20825;BME280;10573;50.936;6.978;2023-05-21T04:54:11;101165.78;;;15.66;66.17
20825;BME280;10573;50.936;6.978;2023-05-21T04:56:36;101169.94;;;15.78;66.23
20825;BME280;10573;50.936;6.978;2023-05-21T04:59:02;101166.19;;;15.88;65.91
20825;BME280;10573;50.936;6.978;2023-05-21T05:01:28;101164.81;;;15.84;66.41
20825;BME280;10573;50.936;6.978;2023-05-21T05:03:54;101164.66;;;15.85;65.96
20825;BME280;10573;50.936;6.978;2023-05-21T05:06:19;101169.78;;;15.88;66.06
20825;BME280;10573;50.936;6.978;2023-05-21T05:08:45;101168.59;;;15.91;65.73
20825;BME280;10573;50.936;6.978;2023-05-21T05:11:11;101168.94;;;15.96;65.55
20825;BME280;10573;50.936;6.978;2023-05-21T05:13:39;101168.28;;;16.10;64.99
20825;BME280;10573;50.936;6.978;2023-05-21T05:16:05;101169.13;;;16.11;65.21
20825;BME280;10573;50.936;6.978;2023-05-21T05:18:31;101179.94;;;16.04;65.05
20825;BME280;10573;50.936;6.978;2023-05-21T05:20:58;101176.84;;;15.99;65.52
20825;BME280;10573;50.936;6.978;2023-05-21T05:23:23;101167.22;;;15.87;65.42
20825;BME280;10573;50.936;6.978;2023-05-21T05:25:49;101162.59;;;16.04;65.65
20825;BME280;10573;50.936;6.978;2023-05-21T05:28:14;101169.66;;;15.98;65.29
20825;BME280;10573;50.936;6.978;2023-05-21T05:30:39;101166.72;;;16.33;64.55
20825;BME280;10573;50.936;6.978;2023-05-21T05:33:05;101165.16;;;16.30;64.21
20825;BME280;10573;50.936;6.978;2023-05-21T05:35:30;101163.47;;;16.21;64.57
20825;BME280;10573;50.936;6.978;2023-05-21T05:37:56;101160.91;;;16.27;64.73
20825;BME280;10573;50.936;6.978;2023-05-21T05:40:21;101157.28;;;16.02;65.47
20825;BME280;10573;50.936;6.978;2023-05-21T05:42:47;101163.81;;;16.42;64.75
20825;BME280;10573;50.936;6.978;2023-05-21T05:45:13;101168.41;;;16.42;64.85
20825;BME280;10573;50.936;6.978;2023-05-21T05:47:39;101168.78;;;16.31;64.64
20825;BME280;10573;50.936;6.978;2023-05-21T05:50:05;101162.41;;;16.47;64.12
20825;BME280;10573;50.936;6.978;2023-05-21T05:52:30;101159.47;;;16.48;64.22
20825;BME280;10573;50.936;6.978;2023-05-21T05:54:55;101155.38;;;16.36;64.79
20825;BME280;10573;50.936;6.978;2023-05-21T05:57:21;101163.31;;;16.14;65.20
20825;BME280;10573;50.936;6.978;2023-05-21T05:59:46;101161.41;;;16.06;65.94
20825;BME280;10573;50.936;6.978;2023-05-21T06:02:12;101156.22;;;16.36;65.24
20825;BME280;10573;50.936;6.978;2023-05-21T06:04:37;101156.41;;;16.43;64.75
20825;BME280;10573;50.936;6.978;2023-05-21T06:07:03;101162.56;;;16.53;64.29
20825;BME280;10573;50.936;6.978;2023-05-21T06:09:28;101158.88;;;16.86;63.78
20825;BME280;10573;50.936;6.978;2023-05-21T06:11:54;101159.22;;;16.99;63.00
20825;BME280;10573;50.936;6.978;2023-05-21T06:14:19;101151.31;;;16.96;62.89
20825;BME280;10573;50.936;6.978;2023-05-21T06:16:45;101153.34;;;17.02;62.59
20825;BME280;10573;50.936;6.978;2023-05-21T06:19:10;101153.34;;;17.02;63.07
20825;BME280;10573;50.936;6.978;2023-05-21T06:21:36;101153.53;;;17.01;63.00
20825;BME280;10573;50.936;6.978;2023-05-21T06:24:01;101158.53;;;16.97;63.23
20825;BME280;10573;50.936;6.978;2023-05-21T06:26:27;101159.44;;;17.29;62.38
20825;BME280;10573;50.936;6.978;2023-05-21T06:28:52;101154.75;;;17.38;61.74
20825;BME280;10573;50.936;6.978;2023-05-21T06:31:17;101147.28;;;17.47;61.28
20825;BME280;10573;50.936;6.978;2023-05-21T06:33:47;101153.06;;;16.72;63.72
20825;BME280;10573;50.936;6.978;2023-05-21T06:36:13;101153.25;;;17.27;62.24
20825;BME280;10573;50.936;6.978;2023-05-21T06:38:39;101157.81;;;17.03;62.42
20825;BME280;10573;50.936;6.978;2023-05-21T06:41:05;101156.34;;;16.76;63.57
20825;BME280;10573;50.936;6.978;2023-05-21T06:43:30;101159.53;;;16.88;63.42
20825;BME280;10573;50.936;6.978;2023-05-21T06:45:56;101161.06;;;17.15;62.96
20825;BME280;10573;50.936;6.978;2023-05-21T06:48:21;101146.06;;;17.72;61.33
20825;BME280;10573;50.936;6.978;2023-05-21T06:50:47;101152.50;;;17.96;60.56
20825;BME280;10573;50.936;6.978;2023-05-21T06:53:12;101151.44;;;18.20;59.85
20825;BME280;10573;50.936;6.978;2023-05-21T06:55:40;101159.53;;;18.37;59.32
20825;BME280;10573;50.936;6.978;2023-05-21T06:58:09;101160.84;;;18.64;58.47
20825;BME280;10573;50.936;6.978;2023-05-21T07:00:35;101167.13;;;18.73;58.07
20825;BME280;10573;50.936;6.978;2023-05-21T07:03:00;101165.16;;;18.82;57.80
20825;BME280;10573;50.936;6.978;2023-05-21T07:05:26;101163.03;;;18.84;57.75
20825;BME280;10573;50.936;6.978;2023-05-21T07:07:51;101170.47;;;18.83;57.45
20825;BME280;10573;50.936;6.978;2023-05-21T07:10:16;101168.00;;;18.73;57.82
20825;BME280;10573;50.936;6.978;2023-05-21T07:12:42;101171.81;;;18.87;58.02
20825;BME280;10573;50.936;6.978;2023-05-21T07:15:07;101174.28;;;19.12;57.04
20825;BME280;10573;50.936;6.978;2023-05-21T07:17:33;101163.53;;;19.02;57.58
20825;BME280;10573;50.936;6.978;2023-05-21T07:19:58;101165.19;;;18.97;57.26
20825;BME280;10573;50.936;6.978;2023-05-21T07:22:24;101172.41;;;19.13;56.65
20825;BME280;10573;50.936;6.978;2023-05-21T07:24:50;101165.66;;;19.52;55.90
20825;BME280;10573;50.936;6.978;2023-05-21T07:27:15;101168.00;;;19.33;56.37
20825;BME280;10573;50.936;6.978;2023-05-21T07:29:41;101172.31;;;19.57;56.45
20825;BME280;10573;50.936;6.978;2023-05-21T07:32:06;101170.28;;;19.81;55.68
20825;BME280;10573;50.936;6.978;2023-05-21T07:34:32;101163.06;;;19.28;56.05
20825;BME280;10573;50.936;6.978;2023-05-21T07:36:57;101168.44;;;19.52;56.12
20825;BME280;10573;50.936;6.978;2023-05-21T07:39:22;101165.00;;;19.50;55.44
20825;BME280;10573;50.936;6.978;2023-05-21T07:41:48;101164.38;;;18.88;57.29
20825;BME280;10573;50.936;6.978;2023-05-21T07:44:13;101167.75;;;18.98;57.21
20825;BME280;10573;50.936;6.978;2023-05-21T07:46:39;101170.63;;;19.41;56.51
20825;BME280;10573;50.936;6.978;2023-05-21T07:49:04;101162.84;;;19.67;55.78
20825;BME280;10573;50.936;6.978;2023-05-21T07:51:30;101163.97;;;19.72;55.18
20825;BME280;10573;50.936;6.978;2023-05-21T07:53:55;101171.47;;;19.57;55.83
20825;BME280;10573;50.936;6.978;2023-05-21T07:56:21;101162.25;;;19.71;55.82
20825;BME280;10573;50.936;6.978;2023-05-21T07:58:47;101164.38;;;19.69;55.39
20825;BME280;10573;50.936;6.978;2023-05-21T08:01:12;101161.88;;;19.74;55.18
20825;BME280;10573;50.936;6.978;2023-05-21T08:03:38;101161.66;;;19.91;55.75
20825;BME280;10573;50.936;6.978;2023-05-21T08:06:03;101167.59;;;20.09;54.30
20825;BME280;10573;50.936;6.978;2023-05-21T08:08:29;101170.09;;;20.04;54.52
20825;BME280;10573;50.936;6.978;2023-05-21T08:10:55;101169.78;;;19.77;54.84
20825;BME280;10573;50.936;6.978;2023-05-21T08:13:21;101175.88;;;19.36;55.92
20825;BME280;10573;50.936;6.978;2023-05-21T08:15:47;101172.69;;;19.18;57.42
20825;BME280;10573;50.936;6.978;2023-05-21T08:18:13;101173.56;;;19.55;56.44
20825;BME280;10573;50.936;6.978;2023-05-21T08:20:39;101163.06;;;19.65;56.13
20825;BME280;10573;50.936;6.978;2023-05-21T08:23:05;101163.25;;;20.00;54.73
20825;BME280;10573;50.936;6.978;2023-05-21T08:25:31;101163.31;;;19.85;55.71
20825;BME280;10573;50.936;6.978;2023-05-21T08:27:57;101161.63;;;20.34;54.80
20825;BME280;10573;50.936;6.978;2023-05-21T08:30:22;101157.34;;;19.67;55.88
20825;BME280;10573;50.936;6.978;2023-05-21T08:32:48;101153.34;;;20.12;55.00
20825;BME280;10573;50.936;6.978;2023-05-21T08:35:13;101153.56;;;20.39;54.39
20825;BME280;10573;50.936;6.978;2023-05-21T08:37:39;101152.72;;;20.67;53.81
20825;BME280;10573;50.936;6.978;2023-05-21T08:40:05;101144.13;;;20.84;52.96
20825;BME280;10573;50.936;6.978;2023-05-21T08:42:46;101143.09;;;21.33;52.56
